sensor_id;sensor_type;location;lat;lon;timestamp;pressure;altitude;pressure_sealevel;temperature;humidity
33404;BME280;19751;40.274;18.268;2023-05-24T00:02:23;100922.00;;;18.85;100.00
33404;BME280;19751;40.274;18.268;2023-05-24T00:04:51;100920.09;;;18.86;100.00
33404;BME280;19751;40.274;18.268;2023-05-24T00:07:17;100916.31;;;18.87;100.00
33404;BME280;19751;40.274;18.268;2023-05-24T00:09:43;100920.09;;;18.86;100.00
33404;BME280;19751;40.274;18.268;2023-05-24T00:12:08;100921.06;;;18.80;100.00
33404;BME280;19751;40.274;18.268;2023-05-24T00:14:34;100925.00;;;18.72;100.00
33404;BME280;19751;40.274;18.268;2023-05-24T00:17:00;100920.31;;;18.61;100.00
33404;BME280;19751;40.274;18.268;2023-05-24T00:19:25;100917.97;;;18.53;100.00
33404;BME280;19751;40.274;18.268;2023-05-24T00:21:51;100911.31;;;18.49;100.00
33404;BME280;19751;40.274;18.268;2023-05-24T00:24:17;100903.63;;;18.46;100.00
33404;BME280;19751;40.274;18.268;2023-05-24T00:26:43;100904.94;;;18.43;100.00
33404;BME280;19751;40.274;18.268;2023-05-24T00:29:09;100900.28;;;18.44;100.00
33404;BME280;19751;40.274;18.268;2023-05-24T00:31:34;100901.13;;;18.44;100.00
33404;BME280;19751;40.274;18.268;2023-05-24T00:34:00;100895.66;;;18.44;100.00
33404;BME280;19751;40.274;18.268;2023-05-24T00:36:25;100900.03;;;18.45;100.00
33404;BME280;19751;40.274;18.268;2023-05-24T00:38:51;100902.56;;;18.47;100.00
33404;BME280;19751;40.274;18.268;2023-05-24T00:41:19;100902.91;;;18.50;100.00
33404;BME280;19751;40.274;18.268;2023-05-24T00:43:45;100890.94;;;18.51;100.00
33404;BME280;19751;40.274;18.268;2023-05-24T00:46:49;100886.78;;;18.49;100.00
33404;BME280;19751;40.274;18.268;2023-05-24T00:49:08;100894.25;;;18.42;100.00
33404;BME280;19751;40.274;18.268;2023-05-24T00:51:34;100890.00;;;18.34;100.00
33404;BME280;19751;40.274;18.268;2023-05-24T00:54:01;100887.97;;;18.29;100.00
33404;BME280;19751;40.274;18.268;2023-05-24T00:56:27;100885.47;;;18.28;100.00
33404;BME280;19751;40.274;18.268;2023-05-24T00:58:53;100885.72;;;18.26;100.00
33404;BME280;19751;40.274;18.268;2023-05-24T01:01:20;100887.63;;;18.26;100.00
33404;BME280;19751;40.274;18.268;2023-05-24T01:03:52;100887.84;;;18.24;100.00
33404;BME280;19751;40.274;18.268;2023-05-24T01:06:18;100886.28;;;18.28;100.00
33404;BME280;19751;40.274;18.268;2023-05-24T01:17:22;100887.94;;;18.53;100.00
33404;BME280;19751;40.274;18.268;2023-05-24T01:19:59;100890.56;;;18.48;100.00
33404;BME280;19751;40.274;18.268;2023-05-24T01:23:04;100885.94;;;18.36;100.00
33404;BME280;19751;40.274;18.268;2023-05-24T01:28:04;100878.63;;;18.25;100.00
33404;BME280;19751;40.274;18.268;2023-05-24T01:30:31;100873.50;;;18.17;100.00
33404;BME280;19751;40.274;18.268;2023-05-24T01:32:57;100876.72;;;18.14;100.00
33404;BME280;19751;40.274;18.268;2023-05-24T01:35:23;100873.38;;;18.12;100.00
33404;BME280;19751;40.274;18.268;2023-05-24T01:37:49;100872.31;;;18.13;100.00
33404;BME280;19751;40.274;18.268;2023-05-24T01:40:14;100869.34;;;18.14;100.00
33404;BME280;19751;40.274;18.268;2023-05-24T01:43:02;100865.56;;;18.16;100.00
33404;BME280;19751;40.274;18.268;2023-05-24T01:51:07;100859.63;;;18.30;100.00
33404;BME280;19751;40.274;18.268;2023-05-24T01:53:42;100857.28;;;18.34;100.00
33404;BME280;19751;40.274;18.268;2023-05-24T01:56:10;100867.69;;;18.37;100.00
33404;BME280;19751;40.274;18.268;2023-05-24T01:58:40;100865.81;;;18.37;100.00
33404;BME280;19751;40.274;18.268;2023-05-24T02:01:08;100870.66;;;18.35;100.00
33404;BME280;19751;40.274;18.268;2023-05-24T02:03:35;100873.75;;;18.27;100.00
33404;BME280;19751;40.274;18.268;2023-05-24T02:06:02;100871.38;;;18.19;100.00
33404;BME280;19751;40.274;18.268;2023-05-24T02:08:28;100881.44;;;18.07;100.00
33404;BME280;19751;40.274;18.268;2023-05-24T02:10:53;100876.44;;;17.92;100.00
33404;BME280;19751;40.274;18.268;2023-05-24T02:13:19;100885.44;;;17.81;100.00
33404;BME280;19751;40.274;18.268;2023-05-24T02:15:45;100885.31;;;17.76;100.00
33404;BME280;19751;40.274;18.268;2023-05-24T02:18:10;100885.13;;;17.71;100.00
33404;BME280;19751;40.274;18.268;2023-05-24T02:20:37;100880.97;;;17.68;100.00
33404;BME280;19751;40.274;18.268;2023-05-24T02:23:02;100880.84;;;17.63;100.00
33404;BME280;19751;40.274;18.268;2023-05-24T02:25:28;100888.66;;;17.59;100.00
33404;BME280;19751;40.274;18.268;2023-05-24T02:27:56;100879.88;;;17.57;100.00
33404;BME280;19751;40.274;18.268;2023-05-24T02:30:22;100884.50;;;17.57;100.00
33404;BME280;19751;40.274;18.268;2023-05-24T02:32:47;100879.28;;;17.55;100.00
33404;BME280;19751;40.274;18.268;2023-05-24T02:35:13;100880.69;;;17.58;100.00
33404;BME280;19751;40.274;18.268;2023-05-24T02:37:38;100867.56;;;17.55;100.00
33404;BME280;19751;40.274;18.268;2023-05-24T02:40:05;100866.13;;;17.52;100.00
33404;BME280;19751;40.274;18.268;2023-05-24T02:42:30;100878.09;;;17.51;100.00
33404;BME280;19751;40.274;18.268;2023-05-24T02:44:56;100870.28;;;17.55;100.00
33404;BME280;19751;40.274;18.268;2023-05-24T02:47:22;100874.06;;;17.54;100.00
33404;BME280;19751;40.274;18.268;2023-05-24T02:49:47;100873.00;;;17.55;100.00
33404;BME280;19751;40.274;18.268;2023-05-24T02:52:13;100872.19;;;17.54;100.00
33404;BME280;19751;40.274;18.268;2023-05-24T02:54:38;100873.22;;;17.53;100.00
33404;BME280;19751;40.274;18.268;2023-05-24T02:57:04;100875.13;;;17.53;100.00
33404;BME280;19751;40.274;18.268;2023-05-24T02:59:33;100873.22;;;17.53;100.00
33404;BME280;19751;40.274;18.268;2023-05-24T03:01:58;100878.47;;;17.55;100.00
33404;BME280;19751;40.274;18.268;2023-05-24T03:04:24;100867.78;;;17.53;100.00
33404;BME280;19751;40.274;18.268;2023-05-24T03:06:49;100879.50;;;17.54;100.00
33404;BME280;19751;40.274;18.268;2023-05-24T03:09:15;100884.13;;;17.53;100.00
33404;BME280;19751;40.274;18.268;2023-05-24T03:11:41;100886.25;;;17.51;100.00
33404;BME280;19751;40.274;18.268;2023-05-24T03:14:07;100889.91;;;17.45;100.00
33404;BME280;19751;40.274;18.268;2023-05-24T03:16:35;100891.91;;;17.38;100.00
33404;BME280;19751;40.274;18.268;2023-05-24T03:19:01;100894.69;;;17.31;100.00
33404;BME280;19751;40.274;18.268;2023-05-24T03:21:26;100902.75;;;17.26;100.00
33404;BME280;19751;40.274;18.268;2023-05-24T03:23:51;100891.94;;;17.20;100.00
33404;BME280;19751;40.274;18.268;2023-05-24T03:26:17;100893.44;;;17.15;100.00
33404;BME280;19751;40.274;18.268;2023-05-24T03:28:43;100898.31;;;17.13;100.00
33404;BME280;19751;40.274;18.268;2023-05-24T03:31:09;100901.22;;;17.12;100.00
33404;BME280;19751;40.274;18.268;2023-05-24T03:33:36;100895.19;;;17.10;100.00
33404;BME280;19751;40.274;18.268;2023-05-24T03:36:02;100896.63;;;17.12;100.00
33404;BME280;19751;40.274;18.268;2023-05-24T03:38:28;100908.94;;;17.15;100.00
33404;BME280;19751;40.274;18.268;2023-05-24T03:40:54;100905.16;;;17.16;100.00
33404;BME280;19751;40.274;18.268;2023-05-24T03:43:19;100905.63;;;17.13;100.00
33404;BME280;19751;40.274;18.268;2023-05-24T03:45:45;100903.13;;;17.11;100.00
33404;BME280;19751;40.274;18.268;2023-05-24T03:48:11;100894.97;;;17.11;100.00
33404;BME280;19751;40.274;18.268;2023-05-24T03:50:37;100892.84;;;17.13;100.00
33404;BME280;19751;40.274;18.268;2023-05-24T03:53:02;100898.88;;;17.15;100.00
33404;BME280;19751;40.274;18.268;2023-05-24T03:55:28;100900.53;;;17.17;100.00
33404;BME280;19751;40.274;18.268;2023-05-24T03:57:54;100906.34;;;17.20;100.00
33404;BME280;19751;40.274;18.268;2023-05-24T04:00:22;100897.50;;;17.25;100.00
33404;BME280;19751;40.274;18.268;2023-05-24T04:02:48;100900.00;;;17.26;100.00
33404;BME280;19751;40.274;18.268;2023-05-24T04:05:13;100906.66;;;17.30;100.00
33404;BME280;19751;40.274;18.268;2023-05-24T04:07:39;100907.25;;;17.32;100.00
33404;BME280;19751;40.274;18.268;2023-05-24T04:10:06;100905.72;;;17.36;100.00
33404;BME280;19751;40.274;18.268;2023-05-24T04:12:32;100905.72;;;17.36;100.00
33404;BME280;19751;40.274;18.268;2023-05-24T04:14:58;100913.69;;;17.38;100.00
33404;BME280;19751;40.274;18.268;2023-05-24T04:17:25;100901.94;;;17.37;100.00
33404;BME280;19751;40.274;18.268;2023-05-24T04:19:51;100907.38;;;17.37;100.00
33404;BME280;19751;40.274;18.268;2023-05-24T04:22:17;100911.91;;;17.44;100.00
33404;BME280;19751;40.274;18.268;2023-05-24T04:24:46;100917.41;;;17.55;100.00
33404;BME280;19751;40.274;18.268;2023-05-24T04:27:11;100920.19;;;17.67;100.00
33404;BME280;19751;40.274;18.268;2023-05-24T04:29:40;100919.66;;;17.77;100.00
33404;BME280;19751;40.274;18.268;2023-05-24T04:32:06;100915.41;;;17.81;100.00
33404;BME280;19751;40.274;18.268;2023-05-24T04:34:34;100919.06;;;17.86;100.00
33404;BME280;19751;40.274;18.268;2023-05-24T04:37:00;100912.47;;;17.94;100.00
33404;BME280;19751;40.274;18.268;2023-05-24T04:39:30;100911.63;;;17.94;100.00
33404;BME280;19751;40.274;18.268;2023-05-24T04:41:56;100911.16;;;17.97;100.00
33404;BME280;19751;40.274;18.268;2023-05-24T04:44:22;100918.41;;;18.03;100.00
33404;BME280;19751;40.274;18.268;2023-05-24T04:46:48;100913.94;;;18.08;100.00
33404;BME280;19751;40.274;18.268;2023-05-24T04:49:14;100918.06;;;18.11;100.00
33404;BME280;19751;40.274;18.268;2023-05-24T04:51:39;100912.03;;;18.09;100.00
33404;BME280;19751;40.274;18.268;2023-05-24T04:54:05;100915.94;;;18.13;100.00
33404;BME280;19751;40.274;18.268;2023-05-24T04:56:38;100914.41;;;18.17;100.00
33404;BME280;19751;40.274;18.268;2023-05-24T04:59:04;100913.22;;;18.25;100.00
33404;BME280;19751;40.274;18.268;2023-05-24T05:01:30;100917.97;;;18.29;100.00
33404;BME280;19751;40.274;18.268;2023-05-24T05:03:57;100920.22;;;18.32;100.00
33404;BME280;19751;40.274;18.268;2023-05-24T05:06:22;100922.72;;;18.34;100.00
33404;BME280;19751;40.274;18.268;2023-05-24T05:08:49;100916.09;;;18.42;100.00
33404;BME280;19751;40.274;18.268;2023-05-24T05:11:14;100925.78;;;18.49;100.00
33404;BME280;19751;40.274;18.268;2023-05-24T05:13:40;100912.75;;;18.51;100.00
33404;BME280;19751;40.274;18.268;2023-05-24T05:16:06;100916.91;;;18.54;100.00
33404;BME280;19751;40.274;18.268;2023-05-24T05:18:31;100918.09;;;18.58;100.00
33404;BME280;19751;40.274;18.268;2023-05-24T05:20:58;100917.59;;;18.61;100.00
33404;BME280;19751;40.274;18.268;2023-05-24T05:23:23;100913.31;;;18.65;100.00
33404;BME280;19751;40.274;18.268;2023-05-24T05:25:49;100915.72;;;18.73;100.00
33404;BME280;19751;40.274;18.268;2023-05-24T05:28:14;100915.97;;;18.83;100.00
33404;BME280;19751;40.274;18.268;2023-05-24T05:30:40;100918.91;;;18.94;100.00
33404;BME280;19751;40.274;18.268;2023-05-24T05:33:05;100921.50;;;19.00;100.00
33404;BME280;19751;40.274;18.268;2023-05-24T05:35:31;100914.84;;;19.08;100.00
33404;BME280;19751;40.274;18.268;2023-05-24T05:37:57;100922.66;;;19.16;100.00
33404;BME280;19751;40.274;18.268;2023-05-24T05:40:23;100919.44;;;19.19;100.00
33404;BME280;19751;40.274;18.268;2023-05-24T05:42:48;100911.00;;;19.21;100.00
33404;BME280;19751;40.274;18.268;2023-05-24T05:45:14;100924.50;;;19.27;100.00
33404;BME280;19751;40.274;18.268;2023-05-24T05:47:40;100923.19;;;19.30;100.00
33404;BME280;19751;40.274;18.268;2023-05-24T05:50:07;100924.13;;;19.35;100.00
33404;BME280;19751;40.274;18.268;2023-05-24T05:52:33;100916.63;;;19.43;100.00
33404;BME280;19751;40.274;18.268;2023-05-24T05:54:58;100923.81;;;19.49;100.00
33404;BME280;19751;40.274;18.268;2023-05-24T05:57:25;100924.78;;;19.54;100.00
33404;BME280;19751;40.274;18.268;2023-05-24T05:59:50;100925.34;;;19.56;100.00
33404;BME280;19751;40.274;18.268;2023-05-24T06:02:16;100925.69;;;19.60;100.00
33404;BME280;19751;40.274;18.268;2023-05-24T06:04:44;100923.06;;;19.65;100.00
33404;BME280;19751;40.274;18.268;2023-05-24T06:07:09;100936.00;;;19.70;100.00
33404;BME280;19751;40.274;18.268;2023-05-24T06:09:35;100933.13;;;19.76;100.00
33404;BME280;19751;40.274;18.268;2023-05-24T06:12:00;100939.63;;;19.87;100.00
33404;BME280;19751;40.274;18.268;2023-05-24T06:14:26;100938.69;;;19.98;100.00
33404;BME280;19751;40.274;18.268;2023-05-24T06:16:51;100943.53;;;20.08;100.00
33404;BME280;19751;40.274;18.268;2023-05-24T06:19:19;100943.69;;;20.18;100.00
33404;BME280;19751;40.274;18.268;2023-05-24T06:21:48;100939.16;;;20.24;100.00
33404;BME280;19751;40.274;18.268;2023-05-24T06:24:16;100956.69;;;20.28;100.00
33404;BME280;19751;40.274;18.268;2023-05-24T06:26:49;100956.19;;;20.31;100.00
33404;BME280;19751;40.274;18.268;2023-05-24T06:29:15;100955.97;;;20.32;100.00
33404;BME280;19751;40.274;18.268;2023-05-24T06:31:41;100953.25;;;20.32;100.00
33404;BME280;19751;40.274;18.268;2023-05-24T06:34:07;100951.66;;;20.36;100.00
33404;BME280;19751;40.274;18.268;2023-05-24T06:36:33;100952.81;;;20.41;100.00
33404;BME280;19751;40.274;18.268;2023-05-24T06:39:00;100950.97;;;20.46;100.00
33404;BME280;19751;40.274;18.268;2023-05-24T06:41:26;100955.84;;;20.44;100.00
33404;BME280;19751;40.274;18.268;2023-05-24T06:43:52;100956.19;;;20.48;100.00
33404;BME280;19751;40.274;18.268;2023-05-24T06:46:17;100961.81;;;20.53;100.00
33404;BME280;19751;40.274;18.268;2023-05-24T06:48:43;100960.28;;;20.62;100.00
33404;BME280;19751;40.274;18.268;2023-05-24T06:51:09;100959.28;;;20.68;100.00
33404;BME280;19751;40.274;18.268;2023-05-24T06:53:35;100957.75;;;20.77;100.00
33404;BME280;19751;40.274;18.268;2023-05-24T06:56:00;100959.00;;;20.87;100.00
33404;BME280;19751;40.274;18.268;2023-05-24T06:58:26;100964.56;;;20.92;100.00
33404;BME280;19751;40.274;18.268;2023-05-24T07:00:51;100960.22;;;20.96;100.00
33404;BME280;19751;40.274;18.268;2023-05-24T07:03:17;100964.13;;;21.00;100.00
33404;BME280;19751;40.274;18.268;2023-05-24T07:05:42;100964.69;;;21.02;100.00
33404;BME280;19751;40.274;18.268;2023-05-24T07:08:08;100967.19;;;21.03;97.38
33404;BME280;19751;40.274;18.268;2023-05-24T07:10:33;100954.63;;;21.07;97.92
33404;BME280;19751;40.274;18.268;2023-05-24T07:12:59;100961.00;;;21.13;98.29
33404;BME280;19751;40.274;18.268;2023-05-24T07:15:25;100968.44;;;21.18;97.04
33404;BME280;19751;40.274;18.268;2023-05-24T07:17:51;100960.28;;;21.23;96.47
33404;BME280;19751;40.274;18.268;2023-05-24T07:20:16;100959.53;;;21.27;95.51
33404;BME280;19751;40.274;18.268;2023-05-24T07:22:42;100965.66;;;21.34;93.99
33404;BME280;19751;40.274;18.268;2023-05-24T07:25:08;100957.28;;;21.41;93.45
33404;BME280;19751;40.274;18.268;2023-05-24T07:27:34;100957.81;;;21.43;88.98
33404;BME280;19751;40.274;18.268;2023-05-24T07:30:00;100961.72;;;21.47;83.99
33404;BME280;19751;40.274;18.268;2023-05-24T07:32:25;100957.13;;;21.53;83.01
33404;BME280;19751;40.274;18.268;2023-05-24T07:34:51;100961.84;;;21.57;83.66
33404;BME280;19751;40.274;18.268;2023-05-24T07:37:16;100952.34;;;21.65;84.06
33404;BME280;19751;40.274;18.268;2023-05-24T07:39:42;100955.13;;;21.70;84.66
33404;BME280;19751;40.274;18.268;2023-05-24T07:42:08;100945.28;;;21.74;85.34
33404;BME280;19751;40.274;18.268;2023-05-24T07:44:33;100960.69;;;21.80;84.36
33404;BME280;19751;40.274;18.268;2023-05-24T07:46:59;100946.00;;;21.92;83.76
33404;BME280;19751;40.274;18.268;2023-05-24T07:49:26;100952.13;;;21.99;82.87
33404;BME280;19751;40.274;18.268;2023-05-24T07:51:52;100948.63;;;22.08;78.48
33404;BME280;19751;40.274;18.268;2023-05-24T07:54:18;100953.38;;;22.13;77.86
33404;BME280;19751;40.274;18.268;2023-05-24T07:56:43;100955.28;;;22.13;76.11
33404;BME280;19751;40.274;18.268;2023-05-24T07:59:09;100944.31;;;22.13;75.79
33404;BME280;19751;40.274;18.268;2023-05-24T08:01:34;100957.50;;;22.16;75.15
33404;BME280;19751;40.274;18.268;2023-05-24T08:04:01;100949.59;;;22.19;75.04
33404;BME280;19751;40.274;18.268;2023-05-24T08:06:30;100946.31;;;22.22;74.88
33404;BME280;19751;40.274;18.268;2023-05-24T08:08:57;100960.59;;;22.24;74.20
33404;BME280;19751;40.274;18.268;2023-05-24T08:11:22;100954.84;;;22.26;73.51
33404;BME280;19751;40.274;18.268;2023-05-24T08:13:47;100962.56;;;22.29;72.64
33404;BME280;19751;40.274;18.268;2023-05-24T08:16:13;100960.16;;;22.38;69.91
33404;BME280;19751;40.274;18.268;2023-05-24T08:18:38;100954.00;;;22.57;67.61
33404;BME280;19751;40.274;18.268;2023-05-24T08:21:04;100952.41;;;22.72;65.69
33404;BME280;19751;40.274;18.268;2023-05-24T08:23:29;100954.94;;;22.78;62.31
33404;BME280;19751;40.274;18.268;2023-05-24T08:25:56;100955.78;;;22.79;62.88
33404;BME280;19751;40.274;18.268;2023-05-24T08:28:22;100954.13;;;22.78;62.13
33404;BME280;19751;40.274;18.268;2023-05-24T08:30:48;100953.31;;;22.77;62.69
33404;BME280;19751;40.274;18.268;2023-05-24T08:33:13;100956.59;;;22.79;62.38
33404;BME280;19751;40.274;18.268;2023-05-24T08:35:39;100958.25;;;22.80;62.25
33404;BME280;19751;40.274;18.268;2023-05-24T08:38:05;100957.16;;;22.81;61.46
33404;BME280;19751;40.274;18.268;2023-05-24T08:40:34;100961.03;;;22.86;60.76
33404;BME280;19751;40.274;18.268;2023-05-24T08:43:00;100959.66;;;22.88;59.71
33404;BME280;19751;40.274;18.268;2023-05-24T08:45:29;100961.38;;;22.94;57.98
33404;BME280;19751;40.274;18.268;2023-05-24T08:47:56;100957.25;;;22.97;56.38
33404;BME280;19751;40.274;18.268;2023-05-24T08:50:23;100956.75;;;23.05;55.08
33404;BME280;19751;40.274;18.268;2023-05-24T08:52:50;100956.31;;;23.23;52.20
33404;BME280;19751;40.274;18.268;2023-05-24T08:55:16;100943.16;;;23.36;51.31
33404;BME280;19751;40.274;18.268;2023-05-24T08:57:43;100953.94;;;23.47;51.15
33404;BME280;19751;40.274;18.268;2023-05-24T09:00:11;100952.00;;;23.58;50.95
33404;BME280;19751;40.274;18.268;2023-05-24T09:02:38;100950.66;;;23.61;50.27
33404;BME280;19751;40.274;18.268;2023-05-24T09:05:04;100955.06;;;23.62;50.34
33404;BME280;19751;40.274;18.268;2023-05-24T09:07:32;100948.78;;;23.66;49.61
33404;BME280;19751;40.274;18.268;2023-05-24T09:10:04;100956.19;;;23.71;49.50
33404;BME280;19751;40.274;18.268;2023-05-24T09:12:31;100953.19;;;23.83;49.11
33404;BME280;19751;40.274;18.268;2023-05-24T09:15:00;100955.13;;;23.92;48.21
33404;BME280;19751;40.274;18.268;2023-05-24T09:17:26;100960.38;;;23.94;48.36
33404;BME280;19751;40.274;18.268;2023-05-24T09:19:52;100956.53;;;24.00;51.53
33404;BME280;19751;40.274;18.268;2023-05-24T09:22:18;100955.41;;;24.01;56.10
33404;BME280;19751;40.274;18.268;2023-05-24T09:24:50;100963.13;;;23.94;57.80
33404;BME280;19751;40.274;18.268;2023-05-24T09:27:16;100955.94;;;23.88;58.91
33404;BME280;19751;40.274;18.268;2023-05-24T09:29:43;100955.41;;;23.86;60.32
33404;BME280;19751;40.274;18.268;2023-05-24T09:32:16;100954.03;;;23.83;61.12
33404;BME280;19751;40.274;18.268;2023-05-24T09:34:43;100948.00;;;23.81;61.95
33404;BME280;19751;40.274;18.268;2023-05-24T09:37:14;100948.25;;;23.79;62.59
33404;BME280;19751;40.274;18.268;2023-05-24T09:39:43;100947.69;;;23.83;62.85
33404;BME280;19751;40.274;18.268;2023-05-24T09:42:23;100955.94;;;23.88;62.70
33404;BME280;19751;40.274;18.268;2023-05-24T09:45:03;100952.13;;;23.94;62.47
33404;BME280;19751;40.274;18.268;2023-05-24T09:47:33;100948.28;;;23.95;62.06
33404;BME280;19751;40.274;18.268;2023-05-24T09:49:59;100949.91;;;24.01;61.35
33404;BME280;19751;40.274;18.268;2023-05-24T09:52:26;100941.66;;;24.01;61.17
33404;BME280;19751;40.274;18.268;2023-05-24T09:54:52;100943.88;;;24.04;60.81
33404;BME280;19751;40.274;18.268;2023-05-24T09:57:18;100943.63;;;24.05;60.34
33404;BME280;19751;40.274;18.268;2023-05-24T09:59:46;100942.22;;;24.08;59.23
33404;BME280;19751;40.274;18.268;2023-05-24T10:02:12;100938.94;;;24.11;58.59
33404;BME280;19751;40.274;18.268;2023-05-24T10:04:38;100948.81;;;24.12;58.26
33404;BME280;19751;40.274;18.268;2023-05-24T10:07:07;100952.69;;;24.11;57.25
33404;BME280;19751;40.274;18.268;2023-05-24T10:09:33;100954.34;;;24.07;56.93
33404;BME280;19751;40.274;18.268;2023-05-24T10:12:04;100944.16;;;24.02;56.25
33404;BME280;19751;40.274;18.268;2023-05-24T10:14:35;100950.19;;;24.04;56.26
33404;BME280;19751;40.274;18.268;2023-05-24T10:17:05;100952.69;;;24.06;55.92
33404;BME280;19751;40.274;18.268;2023-05-24T10:19:36;100949.66;;;24.08;55.99
33404;BME280;19751;40.274;18.268;2023-05-24T10:22:06;100948.53;;;24.09;55.59
33404;BME280;19751;40.274;18.268;2023-05-24T10:24:37;100946.91;;;24.13;55.14
33404;BME280;19751;40.274;18.268;2023-05-24T10:27:06;100944.41;;;24.16;54.94
33404;BME280;19751;40.274;18.268;2023-05-24T10:29:35;100945.25;;;24.22;54.22
33404;BME280;19751;40.274;18.268;2023-05-24T10:32:06;100946.09;;;24.27;53.73
33404;BME280;19751;40.274;18.268;2023-05-24T10:34:33;100937.28;;;24.36;53.13
33404;BME280;19751;40.274;18.268;2023-05-24T10:37:00;100942.78;;;24.41;52.86
33404;BME280;19751;40.274;18.268;2023-05-24T10:39:27;100941.69;;;24.42;52.54
33404;BME280;19751;40.274;18.268;2023-05-24T10:41:55;100946.66;;;24.40;52.57
33404;BME280;19751;40.274;18.268;2023-05-24T10:44:21;100942.25;;;24.44;52.50
33404;BME280;19751;40.274;18.268;2023-05-24T10:47:15;100943.88;;;24.60;51.48
33404;BME280;19751;40.274;18.268;2023-05-24T10:49:53;100940.53;;;24.73;51.37
33404;BME280;19751;40.274;18.268;2023-05-24T10:52:19;100937.22;;;24.71;50.54
33404;BME280;19751;40.274;18.268;2023-05-24T10:55:08;100931.72;;;24.71;50.19
33404;BME280;19751;40.274;18.268;2023-05-24T10:57:37;100934.47;;;24.76;49.02
33404;BME280;19751;40.274;18.268;2023-05-24T11:02:48;100937.22;;;24.82;48.64
33404;BME280;19751;40.274;18.268;2023-05-24T11:05:14;100925.09;;;24.83;48.36
33404;BME280;19751;40.274;18.268;2023-05-24T11:07:41;100923.72;;;24.85;47.99
33404;BME280;19751;40.274;18.268;2023-05-24T11:10:30;100917.91;;;24.87;47.15
33404;BME280;19751;40.274;18.268;2023-05-24T11:12:58;100922.88;;;24.90;47.14
33404;BME280;19751;40.274;18.268;2023-05-24T11:15:25;100923.69;;;24.90;46.49
33404;BME280;19751;40.274;18.268;2023-05-24T11:20:51;100914.03;;;24.98;45.61
33404;BME280;19751;40.274;18.268;2023-05-24T11:23:17;100914.81;;;25.03;45.49
33404;BME280;19751;40.274;18.268;2023-05-24T11:25:46;100909.03;;;25.05;45.13
33404;BME280;19751;40.274;18.268;2023-05-24T11:28:12;100907.63;;;25.08;44.63
33404;BME280;19751;40.274;18.268;2023-05-24T11:30:42;100911.25;;;25.13;44.37
33404;BME280;19751;40.274;18.268;2023-05-24T11:35:44;100902.34;;;25.26;43.86
33404;BME280;19751;40.274;18.268;2023-05-24T11:38:11;100909.22;;;25.29;43.28
33404;BME280;19751;40.274;18.268;2023-05-24T11:40:40;100904.78;;;25.33;43.01
33404;BME280;19751;40.274;18.268;2023-05-24T11:43:21;100918.81;;;25.37;43.28
33404;BME280;19751;40.274;18.268;2023-05-24T11:45:50;100911.38;;;25.37;43.12
33404;BME280;19751;40.274;18.268;2023-05-24T11:48:18;100911.06;;;25.44;42.75
33404;BME280;19751;40.274;18.268;2023-05-24T11:50:46;100913.22;;;25.52;42.21
33404;BME280;19751;40.274;18.268;2023-05-24T11:53:14;100911.81;;;25.60;42.06
33404;BME280;19751;40.274;18.268;2023-05-24T11:55:40;100913.16;;;25.62;41.56
33404;BME280;19751;40.274;18.268;2023-05-24T11:58:28;100915.84;;;25.72;40.85
33404;BME280;19751;40.274;18.268;2023-05-24T12:00:56;100915.84;;;25.77;40.64
33404;BME280;19751;40.274;18.268;2023-05-24T12:03:22;100910.84;;;25.85;40.45
33404;BME280;19751;40.274;18.268;2023-05-24T12:05:48;100909.94;;;25.94;40.11
33404;BME280;19751;40.274;18.268;2023-05-24T12:08:13;100907.03;;;26.10;39.09
33404;BME280;19751;40.274;18.268;2023-05-24T12:10:42;100900.97;;;26.13;39.31
33404;BME280;19751;40.274;18.268;2023-05-24T12:13:22;100896.53;;;26.12;39.11
33404;BME280;19751;40.274;18.268;2023-05-24T12:15:54;100896.72;;;26.20;39.38
33404;BME280;19751;40.274;18.268;2023-05-24T12:18:21;100898.97;;;26.18;38.73
33404;BME280;19751;40.274;18.268;2023-05-24T12:20:49;100905.31;;;26.19;38.64
33404;BME280;19751;40.274;18.268;2023-05-24T12:23:15;100901.41;;;26.20;38.33
33404;BME280;19751;40.274;18.268;2023-05-24T12:25:41;100902.25;;;26.20;38.30
33404;BME280;19751;40.274;18.268;2023-05-24T12:28:08;100898.91;;;26.23;38.21
33404;BME280;19751;40.274;18.268;2023-05-24T12:30:36;100890.56;;;26.28;38.76
33404;BME280;19751;40.274;18.268;2023-05-24T12:33:02;100891.81;;;26.41;38.62
33404;BME280;19751;40.274;18.268;2023-05-24T12:35:27;100884.63;;;26.45;38.50
33404;BME280;19751;40.274;18.268;2023-05-24T12:37:58;100885.41;;;26.51;38.36
33404;BME280;19751;40.274;18.268;2023-05-24T12:40:24;100879.84;;;26.56;38.28
33404;BME280;19751;40.274;18.268;2023-05-24T12:42:52;100885.94;;;26.53;38.08
33404;BME280;19751;40.274;18.268;2023-05-24T12:45:19;100881.28;;;26.48;38.36
33404;BME280;19751;40.274;18.268;2023-05-24T12:47:54;100871.31;;;26.52;38.60
33404;BME280;19751;40.274;18.268;2023-05-24T12:50:22;100870.34;;;26.62;38.86
33404;BME280;19751;40.274;18.268;2023-05-24T12:52:48;100870.25;;;26.72;38.36
33404;BME280;19751;40.274;18.268;2023-05-24T12:55:26;100867.44;;;26.77;38.37
33404;BME280;19751;40.274;18.268;2023-05-24T12:57:53;100863.59;;;26.73;37.92
33404;BME280;19751;40.274;18.268;2023-05-24T13:00:27;100857.81;;;26.75;37.96
33404;BME280;19751;40.274;18.268;2023-05-24T13:02:54;100863.53;;;26.78;37.97